sensor_id;sensor_type;location;lat;lon;timestamp;pressure;altitude;pressure_sealevel;temperature;humidity
48154;BME280;33942;49.272;14.452;2022-09-20T10:36:48;97312.39;;;11.08;86.84
48154;BME280;33942;49.272;14.452;2022-09-20T10:39:23;97312.27;;;12.97;77.79
48154;BME280;33942;49.272;14.452;2022-09-20T10:42:01;97310.05;;;15.63;65.42
48154;BME280;33942;49.272;14.452;2022-09-20T10:44:42;97315.37;;;15.66;64.07
48154;BME280;33942;49.272;14.452;2022-09-20T10:47:18;97316.08;;;16.33;64.44
48154;BME280;33942;49.272;14.452;2022-09-20T10:49:53;97317.31;;;16.05;62.44
48154;BME280;33942;49.272;14.452;2022-09-20T10:52:42;97321.54;;;16.67;55.89
48154;BME280;33942;49.272;14.452;2022-09-20T10:55:26;97325.59;;;16.69;54.09
48154;BME280;33942;49.272;14.452;2022-09-20T10:58:12;97325.43;;;16.70;47.64
48154;BME280;33942;49.272;14.452;2022-09-20T11:00:51;97328.74;;;16.19;49.11
48154;BME280;33942;49.272;14.452;2022-09-20T11:03:33;97327.55;;;16.00;49.21
48154;BME280;33942;49.272;14.452;2022-09-20T11:06:13;97333.64;;;15.92;50.26
48154;BME280;33942;49.272;14.452;2022-09-20T11:08:42;97330.76;;;15.55;48.91
48154;BME280;33942;49.272;14.452;2022-09-20T11:11:14;97330.59;;;15.70;49.17
48154;BME280;33942;49.272;14.452;2022-09-20T11:13:46;97337.23;;;15.70;48.55
48154;BME280;33942;49.272;14.452;2022-09-20T11:16:18;97337.62;;;16.14;48.67
48154;BME280;33942;49.272;14.452;2022-09-20T11:18:49;97338.19;;;15.96;49.30
48154;BME280;33942;49.272;14.452;2022-09-20T11:21:23;97339.54;;;16.48;49.44
48154;BME280;33942;49.272;14.452;2022-09-20T11:23:59;97333.35;;;17.52;48.88
48154;BME280;33942;49.272;14.452;2022-09-20T11:26:33;97340.35;;;18.12;46.06
48154;BME280;33942;49.272;14.452;2022-09-20T11:29:11;97345.32;;;18.51;49.69
48154;BME280;33942;49.272;14.452;2022-09-20T11:31:43;97350.41;;;18.63;49.29
48154;BME280;33942;49.272;14.452;2022-09-20T11:34:19;97355.10;;;17.51;48.25
48154;BME280;33942;49.272;14.452;2022-09-20T11:36:52;97368.29;;;17.06;48.97
48154;BME280;33942;49.272;14.452;2022-09-20T11:39:26;97375.24;;;16.37;51.04
48154;BME280;33942;49.272;14.452;2022-09-20T11:41:56;97377.96;;;16.16;51.94
48154;BME280;33942;49.272;14.452;2022-09-20T11:44:25;97378.19;;;16.03;52.81
48154;BME280;33942;49.272;14.452;2022-09-20T11:46:57;97379.27;;;15.69;52.06
48154;BME280;33942;49.272;14.452;2022-09-20T11:49:27;97378.19;;;15.26;53.38
48154;BME280;33942;49.272;14.452;2022-09-20T11:52:07;97377.76;;;15.38;55.06
48154;BME280;33942;49.272;14.452;2022-09-20T11:54:49;97371.87;;;16.00;56.84
48154;BME280;33942;49.272;14.452;2022-09-20T11:57:21;97372.14;;;16.13;57.03
48154;BME280;33942;49.272;14.452;2022-09-20T11:59:52;97371.68;;;16.35;57.50
48154;BME280;33942;49.272;14.452;2022-09-20T12:02:31;97366.34;;;17.19;56.94
48154;BME280;33942;49.272;14.452;2022-09-20T12:05:01;97360.45;;;16.63;55.29
48154;BME280;33942;49.272;14.452;2022-09-20T12:07:33;97360.82;;;16.67;55.57
48154;BME280;33942;49.272;14.452;2022-09-20T12:10:03;97361.31;;;16.23;55.38
48154;BME280;33942;49.272;14.452;2022-09-20T12:12:36;97358.43;;;16.18;55.42
48154;BME280;33942;49.272;14.452;2022-09-20T12:15:06;97358.59;;;16.08;56.21
48154;BME280;33942;49.272;14.452;2022-09-20T12:18:26;97357.52;;;16.76;56.36
48154;BME280;33942;49.272;14.452;2022-09-20T12:21:04;97351.41;;;17.78;56.55
48154;BME280;33942;49.272;14.452;2022-09-20T12:24:30;97345.76;;;18.80;52.62
48154;BME280;33942;49.272;14.452;2022-09-20T12:26:58;97342.07;;;18.47;53.04
48154;BME280;33942;49.272;14.452;2022-09-20T12:30:15;97338.69;;;19.07;50.88
48154;BME280;33942;49.272;14.452;2022-09-20T12:32:46;97340.30;;;18.75;50.53
48154;BME280;33942;49.272;14.452;2022-09-20T12:36:14;97338.34;;;18.72;49.07
48154;BME280;33942;49.272;14.452;2022-09-20T12:39:02;97338.87;;;18.33;50.84
48154;BME280;33942;49.272;14.452;2022-09-20T12:41:49;97338.51;;;18.03;48.02
48154;BME280;33942;49.272;14.452;2022-09-20T12:44:24;97337.60;;;17.64;48.94
48154;BME280;33942;49.272;14.452;2022-09-20T12:46:56;97335.23;;;17.77;50.55
48154;BME280;33942;49.272;14.452;2022-09-20T12:49:45;97334.11;;;17.95;53.60
48154;BME280;33942;49.272;14.452;2022-09-20T12:52:27;97330.95;;;18.77;53.08
48154;BME280;33942;49.272;14.452;2022-09-20T12:54:55;97328.31;;;18.86;49.84
48154;BME280;33942;49.272;14.452;2022-09-20T12:57:28;97325.78;;;18.24;48.26
48154;BME280;33942;49.272;14.452;2022-09-20T12:59:59;97326.86;;;18.14;51.76
48154;BME280;33942;49.272;14.452;2022-09-20T13:02:57;97331.31;;;17.98;51.73
48154;BME280;33942;49.272;14.452;2022-09-20T13:05:34;97332.24;;;17.21;45.25
48154;BME280;33942;49.272;14.452;2022-09-20T13:08:12;97336.92;;;16.72;44.02
48154;BME280;33942;49.272;14.452;2022-09-20T13:10:44;97337.31;;;16.78;45.16
48154;BME280;33942;49.272;14.452;2022-09-20T13:13:30;97338.69;;;16.39;46.62
48154;BME280;33942;49.272;14.452;2022-09-20T13:16:01;97342.65;;;16.51;46.64
48154;BME280;33942;49.272;14.452;2022-09-20T13:18:29;97340.28;;;16.75;46.69
48154;BME280;33942;49.272;14.452;2022-09-20T13:20:57;97340.84;;;16.98;45.06
48154;BME280;33942;49.272;14.452;2022-09-20T13:23:27;97335.58;;;17.38;44.82
48154;BME280;33942;49.272;14.452;2022-09-20T13:25:58;97336.33;;;17.44;45.22
48154;BME280;33942;49.272;14.452;2022-09-20T13:28:32;97337.13;;;17.09;44.42
48154;BME280;33942;49.272;14.452;2022-09-20T13:31:22;97336.80;;;16.88;43.67
48154;BME280;33942;49.272;14.452;2022-09-20T13:33:50;97334.86;;;17.10;43.08
48154;BME280;33942;49.272;14.452;2022-09-20T13:36:24;97335.44;;;16.82;43.22
48154;BME280;33942;49.272;14.452;2022-09-20T13:38:54;97336.15;;;17.01;43.93
48154;BME280;33942;49.272;14.452;2022-09-20T13:41:22;97340.55;;;17.20;43.27
48154;BME280;33942;49.272;14.452;2022-09-20T13:43:53;97340.62;;;16.83;43.55
48154;BME280;33942;49.272;14.452;2022-09-20T13:46:22;97340.30;;;16.84;44.89
48154;BME280;33942;49.272;14.452;2022-09-20T13:48:55;97339.55;;;16.50;41.75
48154;BME280;33942;49.272;14.452;2022-09-20T13:51:26;97343.06;;;16.05;43.67
48154;BME280;33942;49.272;14.452;2022-09-20T13:53:53;97340.71;;;15.95;43.95
48154;BME280;33942;49.272;14.452;2022-09-20T13:56:43;97335.84;;;16.33;43.91
48154;BME280;33942;49.272;14.452;2022-09-20T13:59:12;97335.98;;;16.86;43.87
48154;BME280;33942;49.272;14.452;2022-09-20T14:01:46;97337.93;;;16.67;43.26
48154;BME280;33942;49.272;14.452;2022-09-20T14:04:16;97340.08;;;16.94;43.34
48154;BME280;33942;49.272;14.452;2022-09-20T14:06:44;97337.65;;;16.22;42.98
48154;BME280;33942;49.272;14.452;2022-09-20T14:09:19;97340.17;;;15.82;42.51
48154;BME280;33942;49.272;14.452;2022-09-20T14:11:48;97341.29;;;15.33;44.62
48154;BME280;33942;49.272;14.452;2022-09-20T14:14:17;97340.74;;;15.56;45.48
48154;BME280;33942;49.272;14.452;2022-09-20T14:16:46;97341.35;;;15.69;46.43
48154;BME280;33942;49.272;14.452;2022-09-20T14:19:16;97343.20;;;15.88;46.07
48154;BME280;33942;49.272;14.452;2022-09-20T14:21:44;97345.75;;;15.79;46.25
48154;BME280;33942;49.272;14.452;2022-09-20T14:24:31;97344.75;;;15.84;47.47
48154;BME280;33942;49.272;14.452;2022-09-20T14:27:04;97347.78;;;15.96;46.63
48154;BME280;33942;49.272;14.452;2022-09-20T14:29:39;97349.94;;;15.88;46.93
48154;BME280;33942;49.272;14.452;2022-09-20T14:32:15;97354.01;;;15.91;46.78
48154;BME280;33942;49.272;14.452;2022-09-20T14:34:47;97368.30;;;15.54;48.77
48154;BME280;33942;49.272;14.452;2022-09-20T14:40:41;97374.09;;;14.57;47.95
48154;BME280;33942;49.272;14.452;2022-09-20T14:43:23;97372.49;;;15.14;50.34
48154;BME280;33942;49.272;14.452;2022-09-20T14:45:54;97384.24;;;14.38;50.85
48154;BME280;33942;49.272;14.452;2022-09-20T14:48:39;97393.62;;;14.58;51.93
48154;BME280;33942;49.272;14.452;2022-09-20T14:51:17;97393.30;;;14.42;52.36
48154;BME280;33942;49.272;14.452;2022-09-20T14:53:47;97396.05;;;14.49;53.12
48154;BME280;33942;49.272;14.452;2022-09-20T14:56:16;97391.81;;;14.15;54.69
48154;BME280;33942;49.272;14.452;2022-09-20T14:59:22;97393.86;;;14.63;55.11
48154;BME280;33942;49.272;14.452;2022-09-20T15:01:56;97389.52;;;14.60;54.39
48154;BME280;33942;49.272;14.452;2022-09-20T15:04:25;97388.35;;;14.67;55.84
48154;BME280;33942;49.272;14.452;2022-09-20T15:06:54;97385.02;;;15.35;57.74
48154;BME280;33942;49.272;14.452;2022-09-20T15:09:22;97397.37;;;15.29;57.93
48154;BME280;33942;49.272;14.452;2022-09-20T15:12:12;97398.11;;;15.61;57.09
48154;BME280;33942;49.272;14.452;2022-09-20T15:14:40;97394.86;;;15.89;55.41
48154;BME280;33942;49.272;14.452;2022-09-20T15:17:12;97396.69;;;15.99;56.25
48154;BME280;33942;49.272;14.452;2022-09-20T15:19:40;97396.44;;;16.26;54.60
48154;BME280;33942;49.272;14.452;2022-09-20T15:22:08;97400.20;;;16.78;54.56
48154;BME280;33942;49.272;14.452;2022-09-20T15:24:35;97400.78;;;17.23;53.34
48154;BME280;33942;49.272;14.452;2022-09-20T15:27:02;97398.42;;;17.53;53.13
48154;BME280;33942;49.272;14.452;2022-09-20T15:29:30;97403.65;;;17.93;52.30
48154;BME280;33942;49.272;14.452;2022-09-20T15:31:57;97409.27;;;17.97;51.85
48154;BME280;33942;49.272;14.452;2022-09-20T15:34:25;97411.12;;;17.90;51.86
48154;BME280;33942;49.272;14.452;2022-09-20T15:36:52;97411.77;;;18.14;51.97
48154;BME280;33942;49.272;14.452;2022-09-20T15:39:19;97415.20;;;18.22;52.63
48154;BME280;33942;49.272;14.452;2022-09-20T15:41:50;97418.05;;;17.78;52.50
48154;BME280;33942;49.272;14.452;2022-09-20T15:44:18;97419.25;;;18.20;53.16
48154;BME280;33942;49.272;14.452;2022-09-20T15:46:45;97420.99;;;18.08;49.93
48154;BME280;33942;49.272;14.452;2022-09-20T15:49:12;97429.97;;;17.87;51.11
48154;BME280;33942;49.272;14.452;2022-09-20T15:51:39;97432.11;;;17.58;51.66
48154;BME280;33942;49.272;14.452;2022-09-20T15:54:12;97431.22;;;16.94;50.36
48154;BME280;33942;49.272;14.452;2022-09-20T15:56:40;97432.33;;;16.88;51.84
48154;BME280;33942;49.272;14.452;2022-09-20T15:59:09;97438.19;;;16.50;53.02
48154;BME280;33942;49.272;14.452;2022-09-20T16:01:38;97435.51;;;16.15;52.73
